sensor_id;sensor_type;location;lat;lon;timestamp;temperature;humidity
34279;DHT22;20538;51.528;9.942;2023-08-12T00:00:17;18.10;99.90
34279;DHT22;20538;51.528;9.942;2023-08-12T00:02:46;18.10;99.90
34279;DHT22;20538;51.528;9.942;2023-08-12T00:05:12;18.10;99.90
34279;DHT22;20538;51.528;9.942;2023-08-12T00:07:39;18.10;99.90
34279;DHT22;20538;51.528;9.942;2023-08-12T00:10:09;18.10;99.90
34279;DHT22;20538;51.528;9.942;2023-08-12T00:12:36;18.00;99.90
34279;DHT22;20538;51.528;9.942;2023-08-12T00:15:02;18.00;99.90
34279;DHT22;20538;51.528;9.942;2023-08-12T00:17:29;18.00;99.90
34279;DHT22;20538;51.528;9.942;2023-08-12T00:19:55;18.00;99.90
34279;DHT22;20538;51.528;9.942;2023-08-12T00:22:22;18.00;99.90
34279;DHT22;20538;51.528;9.942;2023-08-12T00:24:48;17.90;99.90
34279;DHT22;20538;51.528;9.942;2023-08-12T00:27:13;17.90;99.90
34279;DHT22;20538;51.528;9.942;2023-08-12T00:29:39;17.90;99.90
34279;DHT22;20538;51.528;9.942;2023-08-12T00:32:05;17.90;99.90
34279;DHT22;20538;51.528;9.942;2023-08-12T00:34:30;17.90;99.90
34279;DHT22;20538;51.528;9.942;2023-08-12T00:36:56;17.90;99.90
34279;DHT22;20538;51.528;9.942;2023-08-12T00:39:22;17.90;99.90
34279;DHT22;20538;51.528;9.942;2023-08-12T00:41:48;17.90;99.90
34279;DHT22;20538;51.528;9.942;2023-08-12T00:44:14;17.80;99.90
34279;DHT22;20538;51.528;9.942;2023-08-12T00:46:41;17.80;99.90
34279;DHT22;20538;51.528;9.942;2023-08-12T00:49:07;17.80;99.90
34279;DHT22;20538;51.528;9.942;2023-08-12T00:51:33;17.80;99.90
34279;DHT22;20538;51.528;9.942;2023-08-12T00:53:59;17.80;99.90
34279;DHT22;20538;51.528;9.942;2023-08-12T00:56:26;17.80;99.90
34279;DHT22;20538;51.528;9.942;2023-08-12T00:58:53;17.80;99.90
34279;DHT22;20538;51.528;9.942;2023-08-12T01:01:19;17.80;99.90
34279;DHT22;20538;51.528;9.942;2023-08-12T01:03:45;17.80;99.90
34279;DHT22;20538;51.528;9.942;2023-08-12T01:06:12;17.80;99.90
34279;DHT22;20538;51.528;9.942;2023-08-12T01:08:37;17.80;99.90
34279;DHT22;20538;51.528;9.942;2023-08-12T01:16:52;17.90;99.90
34279;DHT22;20538;51.528;9.942;2023-08-12T01:19:34;17.80;99.90
34279;DHT22;20538;51.528;9.942;2023-08-12T01:22:01;17.90;99.90
34279;DHT22;20538;51.528;9.942;2023-08-12T01:24:36;17.90;99.90
34279;DHT22;20538;51.528;9.942;2023-08-12T01:27:02;17.90;99.90
34279;DHT22;20538;51.528;9.942;2023-08-12T01:29:28;17.90;99.90
34279;DHT22;20538;51.528;9.942;2023-08-12T01:35:03;18.00;99.90
34279;DHT22;20538;51.528;9.942;2023-08-12T01:37:32;18.00;99.90
34279;DHT22;20538;51.528;9.942;2023-08-12T01:40:00;18.00;99.90
34279;DHT22;20538;51.528;9.942;2023-08-12T01:42:28;18.00;99.90
34279;DHT22;20538;51.528;9.942;2023-08-12T01:44:54;18.00;99.90
34279;DHT22;20538;51.528;9.942;2023-08-12T01:47:21;18.00;99.90
34279;DHT22;20538;51.528;9.942;2023-08-12T01:49:46;17.90;99.90
34279;DHT22;20538;51.528;9.942;2023-08-12T01:52:12;17.90;99.90
34279;DHT22;20538;51.528;9.942;2023-08-12T01:54:37;17.90;99.90
34279;DHT22;20538;51.528;9.942;2023-08-12T01:57:04;17.90;99.90
34279;DHT22;20538;51.528;9.942;2023-08-12T01:59:32;18.00;99.90
34279;DHT22;20538;51.528;9.942;2023-08-12T02:01:57;18.00;99.90
34279;DHT22;20538;51.528;9.942;2023-08-12T02:04:23;18.00;99.90
34279;DHT22;20538;51.528;9.942;2023-08-12T02:06:49;18.00;99.90
34279;DHT22;20538;51.528;9.942;2023-08-12T02:09:15;18.00;99.90
34279;DHT22;20538;51.528;9.942;2023-08-12T02:11:40;18.00;99.90
34279;DHT22;20538;51.528;9.942;2023-08-12T02:14:06;18.00;99.90
34279;DHT22;20538;51.528;9.942;2023-08-12T02:16:32;18.00;99.90
34279;DHT22;20538;51.528;9.942;2023-08-12T02:18:57;18.10;99.90
34279;DHT22;20538;51.528;9.942;2023-08-12T02:21:23;18.10;99.90
34279;DHT22;20538;51.528;9.942;2023-08-12T02:23:48;18.10;99.90
34279;DHT22;20538;51.528;9.942;2023-08-12T02:26:15;18.10;99.90
34279;DHT22;20538;51.528;9.942;2023-08-12T02:28:40;18.10;99.90
34279;DHT22;20538;51.528;9.942;2023-08-12T02:31:06;18.10;99.90
34279;DHT22;20538;51.528;9.942;2023-08-12T02:33:32;18.10;99.90
34279;DHT22;20538;51.528;9.942;2023-08-12T02:35:57;18.10;99.90
34279;DHT22;20538;51.528;9.942;2023-08-12T02:38:23;18.10;99.90
34279;DHT22;20538;51.528;9.942;2023-08-12T02:40:49;18.10;99.90
34279;DHT22;20538;51.528;9.942;2023-08-12T02:43:16;18.00;99.90
34279;DHT22;20538;51.528;9.942;2023-08-12T02:45:41;18.00;99.90
34279;DHT22;20538;51.528;9.942;2023-08-12T02:48:09;18.10;99.90
34279;DHT22;20538;51.528;9.942;2023-08-12T02:50:35;18.10;99.90
34279;DHT22;20538;51.528;9.942;2023-08-12T02:53:00;18.10;99.90
34279;DHT22;20538;51.528;9.942;2023-08-12T02:55:26;18.10;99.90
34279;DHT22;20538;51.528;9.942;2023-08-12T02:57:51;18.10;99.90
34279;DHT22;20538;51.528;9.942;2023-08-12T03:00:17;18.10;99.90
34279;DHT22;20538;51.528;9.942;2023-08-12T03:02:43;18.10;99.90
34279;DHT22;20538;51.528;9.942;2023-08-12T03:05:09;18.20;99.90
34279;DHT22;20538;51.528;9.942;2023-08-12T03:07:34;18.20;99.90
34279;DHT22;20538;51.528;9.942;2023-08-12T03:10:00;18.20;99.90
34279;DHT22;20538;51.528;9.942;2023-08-12T03:12:25;18.20;99.90
34279;DHT22;20538;51.528;9.942;2023-08-12T03:14:51;18.10;99.90
34279;DHT22;20538;51.528;9.942;2023-08-12T03:17:17;18.10;99.90
34279;DHT22;20538;51.528;9.942;2023-08-12T03:19:43;18.10;99.90
34279;DHT22;20538;51.528;9.942;2023-08-12T03:22:08;18.20;99.90
34279;DHT22;20538;51.528;9.942;2023-08-12T03:24:34;18.20;99.90
34279;DHT22;20538;51.528;9.942;2023-08-12T03:27:00;18.20;99.90
34279;DHT22;20538;51.528;9.942;2023-08-12T03:29:25;18.30;99.90
34279;DHT22;20538;51.528;9.942;2023-08-12T03:31:51;18.30;99.90
34279;DHT22;20538;51.528;9.942;2023-08-12T03:34:16;18.30;99.90
34279;DHT22;20538;51.528;9.942;2023-08-12T03:36:42;18.30;99.90
34279;DHT22;20538;51.528;9.942;2023-08-12T03:39:08;18.40;99.90
34279;DHT22;20538;51.528;9.942;2023-08-12T03:41:33;18.30;99.90
34279;DHT22;20538;51.528;9.942;2023-08-12T03:43:59;18.30;99.90
34279;DHT22;20538;51.528;9.942;2023-08-12T03:46:25;18.30;99.90
34279;DHT22;20538;51.528;9.942;2023-08-12T03:48:50;18.30;99.90
34279;DHT22;20538;51.528;9.942;2023-08-12T03:51:16;18.10;99.90
34279;DHT22;20538;51.528;9.942;2023-08-12T03:53:42;18.10;99.90
34279;DHT22;20538;51.528;9.942;2023-08-12T03:56:07;18.10;99.90
34279;DHT22;20538;51.528;9.942;2023-08-12T03:58:33;18.10;99.90
34279;DHT22;20538;51.528;9.942;2023-08-12T04:00:58;18.10;99.90
34279;DHT22;20538;51.528;9.942;2023-08-12T04:03:24;18.20;99.90
34279;DHT22;20538;51.528;9.942;2023-08-12T04:05:51;18.20;99.90
34279;DHT22;20538;51.528;9.942;2023-08-12T04:08:19;18.20;99.90
34279;DHT22;20538;51.528;9.942;2023-08-12T04:10:46;18.10;99.90
34279;DHT22;20538;51.528;9.942;2023-08-12T04:13:13;18.00;99.90
34279;DHT22;20538;51.528;9.942;2023-08-12T04:15:39;18.10;99.90
34279;DHT22;20538;51.528;9.942;2023-08-12T04:18:05;18.10;99.90
34279;DHT22;20538;51.528;9.942;2023-08-12T04:20:31;18.00;99.90
34279;DHT22;20538;51.528;9.942;2023-08-12T04:22:56;18.10;99.90
34279;DHT22;20538;51.528;9.942;2023-08-12T04:25:22;18.10;99.90
34279;DHT22;20538;51.528;9.942;2023-08-12T04:27:48;18.10;99.90
34279;DHT22;20538;51.528;9.942;2023-08-12T04:30:18;18.00;99.90
34279;DHT22;20538;51.528;9.942;2023-08-12T04:32:43;18.00;99.90
34279;DHT22;20538;51.528;9.942;2023-08-12T04:35:09;18.10;99.90
34279;DHT22;20538;51.528;9.942;2023-08-12T04:37:35;18.10;99.90
34279;DHT22;20538;51.528;9.942;2023-08-12T04:40:02;18.10;99.90
34279;DHT22;20538;51.528;9.942;2023-08-12T04:42:30;18.10;99.90
34279;DHT22;20538;51.528;9.942;2023-08-12T04:44:56;18.10;99.90
34279;DHT22;20538;51.528;9.942;2023-08-12T04:47:21;18.10;99.90
34279;DHT22;20538;51.528;9.942;2023-08-12T04:49:47;18.10;99.90
34279;DHT22;20538;51.528;9.942;2023-08-12T04:52:13;18.20;99.90
34279;DHT22;20538;51.528;9.942;2023-08-12T04:54:39;18.20;99.90
34279;DHT22;20538;51.528;9.942;2023-08-12T04:57:04;18.20;99.90
34279;DHT22;20538;51.528;9.942;2023-08-12T04:59:31;18.20;99.90
34279;DHT22;20538;51.528;9.942;2023-08-12T05:01:56;18.30;99.90
34279;DHT22;20538;51.528;9.942;2023-08-12T05:04:22;18.30;99.90
34279;DHT22;20538;51.528;9.942;2023-08-12T05:06:48;18.30;99.90
34279;DHT22;20538;51.528;9.942;2023-08-12T05:09:14;18.40;99.90
34279;DHT22;20538;51.528;9.942;2023-08-12T05:11:39;18.50;99.90
34279;DHT22;20538;51.528;9.942;2023-08-12T05:14:05;18.50;99.90
34279;DHT22;20538;51.528;9.942;2023-08-12T05:16:31;18.60;99.90
34279;DHT22;20538;51.528;9.942;2023-08-12T05:18:56;18.60;99.90
34279;DHT22;20538;51.528;9.942;2023-08-12T05:21:22;18.60;99.90
34279;DHT22;20538;51.528;9.942;2023-08-12T05:23:48;18.50;99.90
34279;DHT22;20538;51.528;9.942;2023-08-12T05:26:14;18.50;99.90
34279;DHT22;20538;51.528;9.942;2023-08-12T05:28:40;18.60;99.90
34279;DHT22;20538;51.528;9.942;2023-08-12T05:31:05;18.60;99.90
34279;DHT22;20538;51.528;9.942;2023-08-12T05:33:31;18.50;99.90
34279;DHT22;20538;51.528;9.942;2023-08-12T05:35:57;18.60;99.90
34279;DHT22;20538;51.528;9.942;2023-08-12T05:38:22;18.60;99.90
34279;DHT22;20538;51.528;9.942;2023-08-12T05:40:48;18.60;99.90
34279;DHT22;20538;51.528;9.942;2023-08-12T05:43:14;18.70;99.90
34279;DHT22;20538;51.528;9.942;2023-08-12T05:45:39;18.70;99.90
34279;DHT22;20538;51.528;9.942;2023-08-12T05:48:05;18.70;99.90
34279;DHT22;20538;51.528;9.942;2023-08-12T05:50:31;18.60;99.90
34279;DHT22;20538;51.528;9.942;2023-08-12T05:52:56;18.70;99.90
34279;DHT22;20538;51.528;9.942;2023-08-12T05:55:22;18.70;99.90
34279;DHT22;20538;51.528;9.942;2023-08-12T05:57:48;18.70;99.90
34279;DHT22;20538;51.528;9.942;2023-08-12T06:00:13;18.70;99.90
34279;DHT22;20538;51.528;9.942;2023-08-12T06:02:39;18.80;99.90
34279;DHT22;20538;51.528;9.942;2023-08-12T06:05:05;18.80;99.90
34279;DHT22;20538;51.528;9.942;2023-08-12T06:07:31;18.90;99.90
34279;DHT22;20538;51.528;9.942;2023-08-12T06:09:56;18.90;99.90
34279;DHT22;20538;51.528;9.942;2023-08-12T06:12:22;19.00;99.90
34279;DHT22;20538;51.528;9.942;2023-08-12T06:14:47;19.10;99.90
34279;DHT22;20538;51.528;9.942;2023-08-12T06:17:13;19.10;99.90
34279;DHT22;20538;51.528;9.942;2023-08-12T06:19:39;19.10;99.90
34279;DHT22;20538;51.528;9.942;2023-08-12T06:22:04;19.10;99.90
34279;DHT22;20538;51.528;9.942;2023-08-12T06:24:30;19.10;99.90
34279;DHT22;20538;51.528;9.942;2023-08-12T06:26:56;19.10;99.90
34279;DHT22;20538;51.528;9.942;2023-08-12T06:29:21;19.10;99.90
34279;DHT22;20538;51.528;9.942;2023-08-12T06:31:47;19.10;99.90
34279;DHT22;20538;51.528;9.942;2023-08-12T06:34:12;19.10;99.90
34279;DHT22;20538;51.528;9.942;2023-08-12T06:36:38;19.10;99.90
34279;DHT22;20538;51.528;9.942;2023-08-12T06:39:04;19.10;99.90
34279;DHT22;20538;51.528;9.942;2023-08-12T06:41:29;19.20;99.90
34279;DHT22;20538;51.528;9.942;2023-08-12T06:43:55;19.20;99.90
34279;DHT22;20538;51.528;9.942;2023-08-12T06:46:20;19.30;99.90
34279;DHT22;20538;51.528;9.942;2023-08-12T06:48:46;19.40;99.90
34279;DHT22;20538;51.528;9.942;2023-08-12T06:51:12;19.30;99.90
34279;DHT22;20538;51.528;9.942;2023-08-12T06:53:40;19.30;99.90
34279;DHT22;20538;51.528;9.942;2023-08-12T06:56:06;19.40;99.90
34279;DHT22;20538;51.528;9.942;2023-08-12T06:58:32;19.40;99.90
34279;DHT22;20538;51.528;9.942;2023-08-12T07:00:57;19.50;99.90
34279;DHT22;20538;51.528;9.942;2023-08-12T07:03:24;19.60;99.90
34279;DHT22;20538;51.528;9.942;2023-08-12T07:05:51;19.60;99.90
34279;DHT22;20538;51.528;9.942;2023-08-12T07:08:17;19.60;99.90
34279;DHT22;20538;51.528;9.942;2023-08-12T07:10:43;19.70;99.90
34279;DHT22;20538;51.528;9.942;2023-08-12T07:13:08;19.70;99.90
34279;DHT22;20538;51.528;9.942;2023-08-12T07:15:34;19.80;99.90
34279;DHT22;20538;51.528;9.942;2023-08-12T07:18:00;19.80;99.90
34279;DHT22;20538;51.528;9.942;2023-08-12T07:20:25;19.90;99.90
34279;DHT22;20538;51.528;9.942;2023-08-12T07:22:51;19.90;99.90
34279;DHT22;20538;51.528;9.942;2023-08-12T07:25:17;19.90;99.90
34279;DHT22;20538;51.528;9.942;2023-08-12T07:27:42;19.90;99.90
34279;DHT22;20538;51.528;9.942;2023-08-12T07:30:09;19.90;99.90
34279;DHT22;20538;51.528;9.942;2023-08-12T07:32:37;19.90;99.90
34279;DHT22;20538;51.528;9.942;2023-08-12T07:35:03;19.90;99.90
34279;DHT22;20538;51.528;9.942;2023-08-12T07:37:31;20.00;99.90
34279;DHT22;20538;51.528;9.942;2023-08-12T07:39:57;20.10;99.90
34279;DHT22;20538;51.528;9.942;2023-08-12T07:42:22;20.20;99.90
34279;DHT22;20538;51.528;9.942;2023-08-12T07:44:48;20.40;99.90
34279;DHT22;20538;51.528;9.942;2023-08-12T07:47:14;20.60;99.90
34279;DHT22;20538;51.528;9.942;2023-08-12T07:49:41;20.80;99.90
34279;DHT22;20538;51.528;9.942;2023-08-12T07:52:06;20.80;99.90
34279;DHT22;20538;51.528;9.942;2023-08-12T07:54:32;21.00;99.90
34279;DHT22;20538;51.528;9.942;2023-08-12T07:56:58;21.30;99.90
34279;DHT22;20538;51.528;9.942;2023-08-12T07:59:23;21.50;99.90
34279;DHT22;20538;51.528;9.942;2023-08-12T08:01:49;21.60;99.90
34279;DHT22;20538;51.528;9.942;2023-08-12T08:04:15;21.70;99.90
34279;DHT22;20538;51.528;9.942;2023-08-12T08:06:40;21.70;99.90
34279;DHT22;20538;51.528;9.942;2023-08-12T08:09:06;21.70;99.90
34279;DHT22;20538;51.528;9.942;2023-08-12T08:11:32;21.80;99.90
34279;DHT22;20538;51.528;9.942;2023-08-12T08:13:58;21.90;99.90
34279;DHT22;20538;51.528;9.942;2023-08-12T08:16:24;22.00;99.90
34279;DHT22;20538;51.528;9.942;2023-08-12T08:18:50;22.20;99.90
34279;DHT22;20538;51.528;9.942;2023-08-12T08:21:16;22.50;99.90
34279;DHT22;20538;51.528;9.942;2023-08-12T08:23:42;22.70;99.90
34279;DHT22;20538;51.528;9.942;2023-08-12T08:26:08;22.90;99.90
34279;DHT22;20538;51.528;9.942;2023-08-12T08:28:34;22.80;99.90
34279;DHT22;20538;51.528;9.942;2023-08-12T08:31:00;22.50;99.90
34279;DHT22;20538;51.528;9.942;2023-08-12T08:33:26;22.30;99.90
34279;DHT22;20538;51.528;9.942;2023-08-12T08:35:53;22.30;99.90
34279;DHT22;20538;51.528;9.942;2023-08-12T08:38:19;22.40;99.90
34279;DHT22;20538;51.528;9.942;2023-08-12T08:40:44;22.50;99.90
34279;DHT22;20538;51.528;9.942;2023-08-12T08:43:11;22.50;99.90
34279;DHT22;20538;51.528;9.942;2023-08-12T08:45:39;22.80;99.90
34279;DHT22;20538;51.528;9.942;2023-08-12T08:48:07;23.10;99.90
34279;DHT22;20538;51.528;9.942;2023-08-12T08:50:33;23.50;99.90
34279;DHT22;20538;51.528;9.942;2023-08-12T08:53:01;23.70;99.90
34279;DHT22;20538;51.528;9.942;2023-08-12T08:55:27;24.00;99.90
34279;DHT22;20538;51.528;9.942;2023-08-12T08:57:53;24.10;99.90
34279;DHT22;20538;51.528;9.942;2023-08-12T09:00:20;24.30;99.90
34279;DHT22;20538;51.528;9.942;2023-08-12T09:02:49;24.40;99.90
34279;DHT22;20538;51.528;9.942;2023-08-12T09:05:16;24.40;99.90
34279;DHT22;20538;51.528;9.942;2023-08-12T09:07:43;24.30;99.90
34279;DHT22;20538;51.528;9.942;2023-08-12T09:10:10;24.00;99.90
34279;DHT22;20538;51.528;9.942;2023-08-12T09:12:36;23.90;99.90
34279;DHT22;20538;51.528;9.942;2023-08-12T09:15:02;23.90;99.90
34279;DHT22;20538;51.528;9.942;2023-08-12T09:17:27;24.00;99.90
34279;DHT22;20538;51.528;9.942;2023-08-12T09:19:53;23.90;99.90
34279;DHT22;20538;51.528;9.942;2023-08-12T09:22:19;24.10;99.90
34279;DHT22;20538;51.528;9.942;2023-08-12T09:24:44;24.30;99.90
34279;DHT22;20538;51.528;9.942;2023-08-12T09:27:10;24.50;99.90
34279;DHT22;20538;51.528;9.942;2023-08-12T09:29:36;24.70;99.90
34279;DHT22;20538;51.528;9.942;2023-08-12T09:32:18;24.50;99.90
34279;DHT22;20538;51.528;9.942;2023-08-12T09:34:48;24.90;99.90
34279;DHT22;20538;51.528;9.942;2023-08-12T09:37:14;25.30;99.90
34279;DHT22;20538;51.528;9.942;2023-08-12T09:39:40;25.10;99.90
34279;DHT22;20538;51.528;9.942;2023-08-12T09:42:06;25.00;99.90
34279;DHT22;20538;51.528;9.942;2023-08-12T09:44:38;25.00;99.90
34279;DHT22;20538;51.528;9.942;2023-08-12T09:47:05;24.90;99.90
34279;DHT22;20538;51.528;9.942;2023-08-12T09:49:31;24.80;99.90
34279;DHT22;20538;51.528;9.942;2023-08-12T09:51:57;24.90;99.90
34279;DHT22;20538;51.528;9.942;2023-08-12T09:54:27;24.80;99.90
34279;DHT22;20538;51.528;9.942;2023-08-12T09:56:57;24.70;99.90
34279;DHT22;20538;51.528;9.942;2023-08-12T09:59:25;24.80;99.90
34279;DHT22;20538;51.528;9.942;2023-08-12T10:01:52;25.00;99.90
34279;DHT22;20538;51.528;9.942;2023-08-12T10:04:21;25.20;99.90
34279;DHT22;20538;51.528;9.942;2023-08-12T10:06:48;25.30;99.90
34279;DHT22;20538;51.528;9.942;2023-08-12T10:09:15;25.50;99.90
34279;DHT22;20538;51.528;9.942;2023-08-12T10:11:45;25.70;99.90
34279;DHT22;20538;51.528;9.942;2023-08-12T10:14:12;25.70;99.90
34279;DHT22;20538;51.528;9.942;2023-08-12T10:16:38;25.60;99.90
34279;DHT22;20538;51.528;9.942;2023-08-12T10:19:05;25.80;99.90
34279;DHT22;20538;51.528;9.942;2023-08-12T10:21:32;25.80;99.90
34279;DHT22;20538;51.528;9.942;2023-08-12T10:24:00;25.70;99.90
34279;DHT22;20538;51.528;9.942;2023-08-12T10:26:29;25.50;99.90
34279;DHT22;20538;51.528;9.942;2023-08-12T10:28:55;25.50;99.90
34279;DHT22;20538;51.528;9.942;2023-08-12T10:31:21;25.50;99.90
34279;DHT22;20538;51.528;9.942;2023-08-12T10:33:48;25.30;99.90
34279;DHT22;20538;51.528;9.942;2023-08-12T10:36:15;25.40;99.90
34279;DHT22;20538;51.528;9.942;2023-08-12T10:38:41;25.50;99.90
34279;DHT22;20538;51.528;9.942;2023-08-12T10:43:59;25.50;99.90
34279;DHT22;20538;51.528;9.942;2023-08-12T10:46:36;25.70;99.90
34279;DHT22;20538;51.528;9.942;2023-08-12T10:51:51;26.20;99.90
34279;DHT22;20538;51.528;9.942;2023-08-12T10:54:26;26.00;99.90
34279;DHT22;20538;51.528;9.942;2023-08-12T11:02:31;26.20;99.90
34279;DHT22;20538;51.528;9.942;2023-08-12T11:05:08;26.40;99.90
34279;DHT22;20538;51.528;9.942;2023-08-12T11:07:47;26.40;99.90
34279;DHT22;20538;51.528;9.942;2023-08-12T11:12:52;26.40;99.90
34279;DHT22;20538;51.528;9.942;2023-08-12T11:15:41;26.40;99.90
34279;DHT22;20538;51.528;9.942;2023-08-12T11:18:17;26.30;99.90
34279;DHT22;20538;51.528;9.942;2023-08-12T11:20:43;26.60;99.90
34279;DHT22;20538;51.528;9.942;2023-08-12T11:23:10;27.00;99.90
34279;DHT22;20538;51.528;9.942;2023-08-12T11:25:38;27.10;99.90
34279;DHT22;20538;51.528;9.942;2023-08-12T11:28:05;26.90;99.90
34279;DHT22;20538;51.528;9.942;2023-08-12T11:30:31;26.80;99.90
34279;DHT22;20538;51.528;9.942;2023-08-12T11:32:57;26.80;99.90
34279;DHT22;20538;51.528;9.942;2023-08-12T11:35:23;26.90;99.90
34279;DHT22;20538;51.528;9.942;2023-08-12T11:37:51;27.10;99.90
34279;DHT22;20538;51.528;9.942;2023-08-12T11:40:24;27.20;99.90
34279;DHT22;20538;51.528;9.942;2023-08-12T11:42:51;27.40;99.90
34279;DHT22;20538;51.528;9.942;2023-08-12T11:45:19;27.50;99.90
34279;DHT22;20538;51.528;9.942;2023-08-12T11:47:46;27.60;99.90
34279;DHT22;20538;51.528;9.942;2023-08-12T11:50:25;27.60;99.90
34279;DHT22;20538;51.528;9.942;2023-08-12T11:52:52;27.60;99.90
34279;DHT22;20538;51.528;9.942;2023-08-12T11:55:18;27.50;99.90
34279;DHT22;20538;51.528;9.942;2023-08-12T11:57:45;27.20;99.90
34279;DHT22;20538;51.528;9.942;2023-08-12T12:00:12;27.10;99.90
34279;DHT22;20538;51.528;9.942;2023-08-12T12:02:55;27.10;99.90
34279;DHT22;20538;51.528;9.942;2023-08-12T12:05:23;27.20;99.90
34279;DHT22;20538;51.528;9.942;2023-08-12T12:07:49;26.90;99.90
34279;DHT22;20538;51.528;9.942;2023-08-12T12:10:29;26.80;99.90
34279;DHT22;20538;51.528;9.942;2023-08-12T12:12:59;26.70;99.90
34279;DHT22;20538;51.528;9.942;2023-08-12T12:15:25;26.70;99.90
34279;DHT22;20538;51.528;9.942;2023-08-12T12:17:52;26.80;99.90
34279;DHT22;20538;51.528;9.942;2023-08-12T12:20:18;26.80;99.90
34279;DHT22;20538;51.528;9.942;2023-08-12T12:22:46;26.80;99.90
34279;DHT22;20538;51.528;9.942;2023-08-12T12:25:14;26.50;99.90
34279;DHT22;20538;51.528;9.942;2023-08-12T12:27:41;26.40;99.90
34279;DHT22;20538;51.528;9.942;2023-08-12T12:30:11;26.50;99.90
34279;DHT22;20538;51.528;9.942;2023-08-12T12:32:38;26.50;99.90
34279;DHT22;20538;51.528;9.942;2023-08-12T12:35:04;26.70;99.90
34279;DHT22;20538;51.528;9.942;2023-08-12T12:37:33;26.80;99.90
34279;DHT22;20538;51.528;9.942;2023-08-12T12:39:58;26.80;99.90
34279;DHT22;20538;51.528;9.942;2023-08-12T12:42:24;26.80;99.90
34279;DHT22;20538;51.528;9.942;2023-08-12T12:44:50;26.60;99.90
34279;DHT22;20538;51.528;9.942;2023-08-12T12:47:16;26.40;99.90
34279;DHT22;20538;51.528;9.942;2023-08-12T12:49:41;26.40;99.90
34279;DHT22;20538;51.528;9.942;2023-08-12T12:52:07;26.50;99.90
34279;DHT22;20538;51.528;9.942;2023-08-12T12:54:33;26.50;99.90
34279;DHT22;20538;51.528;9.942;2023-08-12T12:56:59;26.50;99.90
34279;DHT22;20538;51.528;9.942;2023-08-12T12:59:24;26.50;99.90
34279;DHT22;20538;51.528;9.942;2023-08-12T13:01:50;26.60;99.90
34279;DHT22;20538;51.528;9.942;2023-08-12T13:04:16;26.70;99.90
34279;DHT22;20538;51.528;9.942;2023-08-12T13:06:41;26.80;99.90
34279;DHT22;20538;51.528;9.942;2023-08-12T13:09:07;26.80;99.90
34279;DHT22;20538;51.528;9.942;2023-08-12T13:11:33;26.90;99.90
34279;DHT22;20538;51.528;9.942;2023-08-12T13:14:05;27.00;99.90
34279;DHT22;20538;51.528;9.942;2023-08-12T13:16:31;27.00;99.90
34279;DHT22;20538;51.528;9.942;2023-08-12T13:18:57;27.20;99.90
34279;DHT22;20538;51.528;9.942;2023-08-12T13:21:26;27.20;99.90
34279;DHT22;20538;51.528;9.942;2023-08-12T13:23:53;27.10;99.90
34279;DHT22;20538;51.528;9.942;2023-08-12T13:26:19;27.20;99.90
34279;DHT22;20538;51.528;9.942;2023-08-12T13:28:46;27.10;99.90
34279;DHT22;20538;51.528;9.942;2023-08-12T13:31:12;27.00;99.90
34279;DHT22;20538;51.528;9.942;2023-08-12T13:33:37;27.00;99.90
34279;DHT22;20538;51.528;9.942;2023-08-12T13:36:03;27.00;99.90
34279;DHT22;20538;51.528;9.942;2023-08-12T13:38:29;26.90;99.90
34279;DHT22;20538;51.528;9.942;2023-08-12T13:40:55;27.00;99.90
34279;DHT22;20538;51.528;9.942;2023-08-12T13:43:20;27.10;99.90
34279;DHT22;20538;51.528;9.942;2023-08-12T13:45:46;27.20;99.90
34279;DHT22;20538;51.528;9.942;2023-08-12T13:48:12;27.30;99.90
34279;DHT22;20538;51.528;9.942;2023-08-12T13:50:37;27.10;99.90
34279;DHT22;20538;51.528;9.942;2023-08-12T13:53:03;27.00;99.90
34279;DHT22;20538;51.528;9.942;2023-08-12T13:55:29;27.00;99.90
34279;DHT22;20538;51.528;9.942;2023-08-12T13:57:54;27.00;99.90
34279;DHT22;20538;51.528;9.942;2023-08-12T14:00:20;27.10;99.90
34279;DHT22;20538;51.528;9.942;2023-08-12T14:02:46;27.00;99.90
34279;DHT22;20538;51.528;9.942;2023-08-12T14:05:14;27.00;99.90
34279;DHT22;20538;51.528;9.942;2023-08-12T14:07:40;26.90;99.90
34279;DHT22;20538;51.528;9.942;2023-08-12T14:10:07;26.80;99.90
34279;DHT22;20538;51.528;9.942;2023-08-12T14:12:32;26.80;99.90
34279;DHT22;20538;51.528;9.942;2023-08-12T14:14:58;26.90;99.90
34279;DHT22;20538;51.528;9.942;2023-08-12T14:17:24;27.00;99.90
34279;DHT22;20538;51.528;9.942;2023-08-12T14:19:51;26.90;99.90
34279;DHT22;20538;51.528;9.942;2023-08-12T14:22:17;27.00;99.90
34279;DHT22;20538;51.528;9.942;2023-08-12T14:24:43;27.20;99.90
34279;DHT22;20538;51.528;9.942;2023-08-12T14:27:10;27.20;99.90
34279;DHT22;20538;51.528;9.942;2023-08-12T14:29:36;27.10;99.90
34279;DHT22;20538;51.528;9.942;2023-08-12T14:32:01;27.20;99.90
34279;DHT22;20538;51.528;9.942;2023-08-12T14:34:27;27.40;99.90
34279;DHT22;20538;51.528;9.942;2023-08-12T14:36:53;27.40;99.90
34279;DHT22;20538;51.528;9.942;2023-08-12T14:39:19;27.50;99.90
34279;DHT22;20538;51.528;9.942;2023-08-12T14:41:44;27.20;99.90
34279;DHT22;20538;51.528;9.942;2023-08-12T14:44:10;27.10;99.90
34279;DHT22;20538;51.528;9.942;2023-08-12T14:46:35;27.20;99.90
34279;DHT22;20538;51.528;9.942;2023-08-12T14:49:01;27.10;99.90
34279;DHT22;20538;51.528;9.942;2023-08-12T14:51:27;27.10;99.90
34279;DHT22;20538;51.528;9.942;2023-08-12T14:53:54;27.20;99.90
34279;DHT22;20538;51.528;9.942;2023-08-12T14:56:20;27.30;99.90
34279;DHT22;20538;51.528;9.942;2023-08-12T14:58:46;27.40;99.90
34279;DHT22;20538;51.528;9.942;2023-08-12T15:01:12;27.00;99.90
34279;DHT22;20538;51.528;9.942;2023-08-12T15:03:38;27.00;99.90
34279;DHT22;20538;51.528;9.942;2023-08-12T15:06:04;27.10;99.90
34279;DHT22;20538;51.528;9.942;2023-08-12T15:08:30;27.00;99.90
34279;DHT22;20538;51.528;9.942;2023-08-12T15:10:56;26.80;99.90
34279;DHT22;20538;51.528;9.942;2023-08-12T15:13:22;26.90;99.90
34279;DHT22;20538;51.528;9.942;2023-08-12T15:15:49;26.90;99.90
34279;DHT22;20538;51.528;9.942;2023-08-12T15:18:16;27.20;99.90
34279;DHT22;20538;51.528;9.942;2023-08-12T15:20:42;26.70;99.90
34279;DHT22;20538;51.528;9.942;2023-08-12T15:23:08;26.60;99.90
34279;DHT22;20538;51.528;9.942;2023-08-12T15:25:34;26.70;99.90
34279;DHT22;20538;51.528;9.942;2023-08-12T15:27:59;26.60;99.90
34279;DHT22;20538;51.528;9.942;2023-08-12T15:30:25;26.50;99.90
34279;DHT22;20538;51.528;9.942;2023-08-12T15:32:51;26.80;99.90
34279;DHT22;20538;51.528;9.942;2023-08-12T15:35:17;27.10;99.90
34279;DHT22;20538;51.528;9.942;2023-08-12T15:37:43;27.20;99.90
34279;DHT22;20538;51.528;9.942;2023-08-12T15:40:09;27.10;99.90
34279;DHT22;20538;51.528;9.942;2023-08-12T15:42:35;27.10;99.90
34279;DHT22;20538;51.528;9.942;2023-08-12T15:45:01;27.00;99.90
34279;DHT22;20538;51.528;9.942;2023-08-12T15:47:30;27.00;99.90